Hovedside
METAR-TAF:

METAR-TAF

Lufthavner :

Roskilde lufthavn

Roskilde, Danmark

breddegrad: 55-35N, lengdegrad: 012-08E, høyde over havet: 44 m

Gjeldene værobservasjon

Denne rapporten ble laget for 25 minutter siden, klokken 18:20 UTC
Vind 10 kt fra Øst-nordøst, skiftende mellom Nord og Øst
Temperatur 4°C
Luftfuktighet 87%
Trykk 1030 hPa
Sikt 10 km eller mer

METAR: EKRK 191820Z AUTO 07010KT 010V100 9999NDV FEW016/// SCT020/// BKN024/// BKN030/// 04/02 Q1030

Tid: 19:45 (18:45 UTC)

Varsel

Denne rapporten ble laget for 1 time og 38 minutter siden, klokken 17:07 UTC
Varsel gyldig fra 19. klokken 18 UTC til 20. klokken 03 UTC
Vind 12 kt fra Øst
Sikt 10 km eller mer
Brutte skyer i en høyde av 2000 ft
Midlertidig
fra 19. klokken 20 UTC til 20. klokken 03 UTC
Brutte skyer i en høyde av 1200 ft, Tårnskyer (cumulus).

TAF: EKRK 191707Z 1918/2003 08012KT 9999 BKN020 TEMPO 1920/2003 BKN012TCU

Værobservasjoner og værvarsel for over 4000 flyplasser (METAR- og TAF-rapporter).

Tilgjengelige stasjoner er representert av de røde og gule prikkene på kartet.

Hold musepekeren over prikken for å se navnet på stasjonen.

Klikk så for å se værobservasjoner og -varsler.

For å forandre kartet kan du klikke på den grønne knappen med svart kryss for å zoome inn, på den grønne knappen med strek for å zoome ut, eller på de grønne pilene for å se tilstøtende kart.


METAR-TAF: